メインページ
METAR-TAF:

METAR-TAF

空港 :

チェンナイ国際空港

チェンナイ, インド

緯度: 13-00N, 経度: 080-11E, 海抜: 10m

現時点の気象観測

当レポートは14分前の03:00(UTC)に作成
南/南西の風 8kt
気温 33°C
湿度 63%
気圧 1007 hPa
視程: 6000m
高度2000ftの雲はほとんどない

METAR: VOMM 210300Z 21008KT 6000 FEW020 33/25 Q1007 NOSIG

時間: 08:44 (03:14 UTC)

予報

当レポートは4時間14分前の23:00(UTC)に作成
予報は21日の 00時(UTC)から 22日の 06時(UTC)まで有効
変向風 2kt
視程: 6000m
高度2000ftの雲はほとんどない
高度10000ftの雲は散在している
21日の 05時(UTC)から 21日の 06時(UTC)まで徐々に
の風 10kt
21日の 06時(UTC)から 21日の 15時(UTC)まで一時的に
高度2000ftの雲は散在している
高度10000ftの千切れ雲あり
21日の 15時(UTC)から 21日の 16時(UTC)まで徐々に
の風 10kt
21日の 21時(UTC)から 21日の 22時(UTC)まで徐々に
変向風 2kt
22日の 05時(UTC)から 22日の 06時(UTC)まで徐々に
の風 10kt

TAF: VOMM 202300Z 2100/2206 VRB02KT 6000 FEW020 SCT100 BECMG 2105/2106 09010KT TEMPO 2106/2115 SCT020 FEW025TCU/CB BKN100 BECMG 2115/2116 18010KT BECMG 2121/2122 VRB02KT BECMG 2205/2206 09010KT

4,000以上の空港の気象観測と天気予報(METAR報とTAF報)

利用可能な観測所は地図上に黄色い丸と赤い丸で示す。

丸の上にカーソルを重ねると観測所名を参照できる。

次にクリックすると気象観測と天気予報を参照できる。

マップの切り替え:黒色「×」印の緑ボタンをクリックして拡大、「-」印の緑ボタンをクリックして縮小、緑色の三角印をクリックして隣りの地図に切り替え


METAR-TAF: